This is the latest recevied weather packets stored in our database for station/object IZ1HMT-3. If no packets are shown the sender has not sent any weather packets the latest 10 day(s).
| Time | Temp. | Humidity | Pressure | Rain* | Wind** | Luminosity | Snow |
|---|---|---|---|---|---|---|---|
| 1788005048 | 33.89° C | 36% | 1014.8 hPa | - | - | - | - |
| 1788004444 | 33.33° C | 37% | 1014.8 hPa | - | - | - | - |
| 1788003840 | 33.89° C | 36% | 1014.9 hPa | - | - | - | - |
| 1788003235 | 33.33° C | 37% | 1015 hPa | - | - | - | - |
| 1788002631 | 33.33° C | 36% | 1015 hPa | - | - | - | - |
| 1788002027 | 33.33° C | 35% | 1015 hPa | - | - | - | - |
| 1788001423 | 32.22° C | 38% | 1015 hPa | - | - | - | - |
| 1788000818 | 32.78° C | 34% | 1015.1 hPa | - | - | - | - |
| 1787999605 | 33.89° C | 32% | 1015 hPa | - | - | - | - |
| 1787999000 | 33.89° C | 32% | 1015.1 hPa | - | - | - | - |
| 1787998395 | 34.44° C | 30% | 1015.2 hPa | - | - | - | - |
| 1787997791 | 36.11° C | 29% | 1015.1 hPa | - | - | - | - |
| 1787997187 | 38.33° C | 26% | 1015.1 hPa | - | - | - | - |
| 1787996583 | 40° C | 25% | 1015 hPa | - | - | - | - |
| 1787995978 | 41.67° C | 23% | 1015 hPa | - | - | - | - |
| 1787995374 | 41.67° C | 24% | 1014.9 hPa | - | - | - | - |
| 1787994770 | 40.56° C | 26% | 1015 hPa | - | - | - | - |
| 1787994165 | 40.56° C | 26% | 1014.9 hPa | - | - | - | - |
| 1787992957 | 40.56° C | 26% | 1014.9 hPa | - | - | - | - |
| 1787992353 | 40° C | 27% | 1014.7 hPa | - | - | - | - |
| 1787991748 | 40.56° C | 27% | 1014.5 hPa | - | - | - | - |
| 1787991144 | 40° C | 29% | 1014.5 hPa | - | - | - | - |
| 1787990540 | 40° C | 27% | 1014.3 hPa | - | - | - | - |
| 1787989936 | 38.89° C | 28% | 1014.3 hPa | - | - | - | - |
| 1787989331 | 38.33° C | 27% | 1014.3 hPa | - | - | - | - |
* Rain since midnight (hover to see other rain measurements)
** Current wind speed in m/s (hover to see current wind gust speed)